createdAt,value
2022-11-10T00:05:19.192Z,13.37
2022-11-10T00:10:51.218Z,13.37
2022-11-10T00:16:23.268Z,13.40
2022-11-10T00:21:55.025Z,13.40
2022-11-10T00:27:26.716Z,13.40
2022-11-10T00:32:58.567Z,13.43
2022-11-10T00:38:30.433Z,13.43
2022-11-10T00:44:01.990Z,13.43
2022-11-10T00:49:33.962Z,13.44
2022-11-10T00:55:05.644Z,13.43
2022-11-10T01:00:37.353Z,13.40
2022-11-10T01:06:09.199Z,13.37
2022-11-10T01:11:41.024Z,13.38
2022-11-10T01:17:12.614Z,13.40
2022-11-10T01:28:16.067Z,13.44
2022-11-10T01:33:47.699Z,13.46
2022-11-10T01:39:19.414Z,13.48
2022-11-10T01:44:50.954Z,13.50
2022-11-10T01:50:22.882Z,13.51
2022-11-10T01:55:54.607Z,13.54
2022-11-10T02:01:26.102Z,13.55
2022-11-10T02:06:57.973Z,13.55
2022-11-10T02:12:29.615Z,13.58
2022-11-10T02:18:01.338Z,13.58
2022-11-10T02:23:33.347Z,13.58
2022-11-10T02:29:05.377Z,13.60
2022-11-10T02:34:37.332Z,13.61
2022-11-10T02:40:09.033Z,13.44
2022-11-10T02:45:40.673Z,13.27
2022-11-10T02:51:12.473Z,12.98
2022-11-10T02:56:44.444Z,12.84
2022-11-10T03:02:16.060Z,12.67
2022-11-10T03:07:47.917Z,12.56
2022-11-10T03:13:19.930Z,12.48
2022-11-10T03:18:51.577Z,12.41
2022-11-10T03:24:23.323Z,12.40
2022-11-10T03:29:55.056Z,12.41
2022-11-10T03:35:26.953Z,12.41
2022-11-10T03:46:30.399Z,12.46
2022-11-10T03:52:02.208Z,12.48
2022-11-10T03:57:33.717Z,12.48
2022-11-10T04:03:05.502Z,12.53
2022-11-10T04:08:37.608Z,12.50
2022-11-10T04:14:09.530Z,12.56
2022-11-10T04:19:41.521Z,12.56
2022-11-10T04:25:13.288Z,12.58
2022-11-10T04:30:45.179Z,12.60
2022-11-10T04:36:16.865Z,12.58
2022-11-10T04:41:48.717Z,12.57
2022-11-10T04:47:20.906Z,12.56
2022-11-10T04:52:52.792Z,12.56
2022-11-10T04:58:24.563Z,12.53
2022-11-10T05:03:56.758Z,12.51
2022-11-10T05:09:28.555Z,12.43
2022-11-10T05:15:00.388Z,12.37
2022-11-10T05:20:32.834Z,12.29
2022-11-10T05:26:04.842Z,12.25
2022-11-10T05:31:36.916Z,12.19
2022-11-10T05:37:08.988Z,12.22
2022-11-10T05:42:41.173Z,12.18
2022-11-10T05:48:13.341Z,12.19
2022-11-10T05:50:36.702Z,12.20
2022-11-10T06:01:40.280Z,12.29
2022-11-10T06:07:12.275Z,12.27
2022-11-10T06:12:44.913Z,12.27
2022-11-10T06:18:15.962Z,12.29
2022-11-10T06:23:47.967Z,12.33
2022-11-10T06:29:25.558Z,12.36
2022-11-10T06:34:52.851Z,12.39
2022-11-10T06:40:23.595Z,12.37
2022-11-10T06:45:55.341Z,12.36
2022-11-10T06:51:26.865Z,12.32
2022-11-10T06:56:58.839Z,12.19
2022-11-10T07:02:30.443Z,12.13
2022-11-10T07:08:02.224Z,12.01
2022-11-10T07:13:34.094Z,11.95
2022-11-10T07:19:05.788Z,11.93
2022-11-10T07:24:38.043Z,11.99
2022-11-10T07:30:10.111Z,12.10
2022-11-10T07:35:41.692Z,12.35
2022-11-10T07:41:13.252Z,12.48
2022-11-10T07:46:45.184Z,12.74
2022-11-10T07:52:17.009Z,12.86
2022-11-10T07:57:48.743Z,13.05
2022-11-10T08:03:21.056Z,13.12
2022-11-10T08:08:52.508Z,13.22
2022-11-10T08:14:24.379Z,13.36
2022-11-10T08:19:56.158Z,14.12
2022-11-10T08:25:31.726Z,14.57
2022-11-10T08:31:04.311Z,15.07
2022-11-10T08:36:31.443Z,15.20
2022-11-10T08:42:02.872Z,15.61
2022-11-10T08:47:34.621Z,15.85
2022-11-10T08:53:12.475Z,16.31
2022-11-10T08:58:52.768Z,16.45
2022-11-10T09:04:15.932Z,16.68
2022-11-10T09:10:06.018Z,16.75
2022-11-10T09:15:19.442Z,16.84
2022-11-10T09:20:57.264Z,16.88
2022-11-10T09:26:29.581Z,16.91
2022-11-10T09:32:01.293Z,16.92
2022-11-10T09:37:38.937Z,16.93
2022-11-10T09:43:16.467Z,16.91
2022-11-10T09:48:48.484Z,16.99
2022-11-10T09:54:26.425Z,16.99
2022-11-10T10:05:36.264Z,17.17
2022-11-10T10:11:08.041Z,17.31
2022-11-10T10:16:45.761Z,17.34
2022-11-10T10:22:18.681Z,17.19
2022-11-10T10:27:50.313Z,17.10
2022-11-10T10:33:22.184Z,17.05
2022-11-10T10:38:54.166Z,16.96
2022-11-10T10:44:26.419Z,16.75
2022-11-10T10:49:58.695Z,16.68
2022-11-10T10:55:30.899Z,16.61
2022-11-10T11:01:02.932Z,16.55
2022-11-10T11:06:34.788Z,16.39
2022-11-10T11:12:06.563Z,16.33
2022-11-10T11:17:38.373Z,16.34
2022-11-10T11:23:10.344Z,16.39
2022-11-10T11:28:42.362Z,16.48
2022-11-10T11:34:14.299Z,16.55
2022-11-10T11:39:52.545Z,16.58
2022-11-10T11:45:24.623Z,16.55
2022-11-10T11:50:56.714Z,16.52
2022-11-10T11:56:28.897Z,16.54
2022-11-10T12:02:00.871Z,16.52
2022-11-10T12:07:32.865Z,16.48
2022-11-10T12:13:04.938Z,16.36
2022-11-10T12:18:37.102Z,16.31
2022-11-10T12:24:10.571Z,16.29
2022-11-10T12:29:41.813Z,16.23
2022-11-10T12:35:14.026Z,16.05
2022-11-10T12:40:45.929Z,15.95
2022-11-10T12:51:49.693Z,15.79
2022-11-10T12:57:21.633Z,15.76
2022-11-10T13:02:53.423Z,15.75
2022-11-10T13:08:25.485Z,15.76
2022-11-10T13:13:59.753Z,15.81
2022-11-10T13:19:28.987Z,15.85
2022-11-10T13:25:01.248Z,15.89
2022-11-10T13:30:33.486Z,15.90
2022-11-10T13:36:05.273Z,15.93
2022-11-10T13:41:37.590Z,15.92
2022-11-10T13:47:09.845Z,15.89
2022-11-10T13:52:41.964Z,15.88
2022-11-10T13:58:15.331Z,15.82
2022-11-10T14:03:47.206Z,15.79
2022-11-10T14:09:18.951Z,15.78
2022-11-10T14:14:50.774Z,15.72
2022-11-10T14:20:23.116Z,15.64
2022-11-10T14:25:55.207Z,15.62
2022-11-10T14:36:57.202Z,15.50
2022-11-10T14:42:29.351Z,15.43
2022-11-10T14:48:01.214Z,15.39
2022-11-10T14:53:33.478Z,15.31
2022-11-10T14:59:05.069Z,15.24
2022-11-10T15:04:36.861Z,15.14
2022-11-10T15:10:08.787Z,15.09
2022-11-10T15:15:40.533Z,14.98
2022-11-10T15:21:12.469Z,14.92
2022-11-10T15:26:44.141Z,14.78
2022-11-10T15:32:16.144Z,14.75
2022-11-10T15:37:47.754Z,14.56
2022-11-10T15:43:19.780Z,14.44
2022-11-10T15:48:51.654Z,14.20
2022-11-10T15:54:23.162Z,14.09
2022-11-10T15:59:55.134Z,13.89
2022-11-10T16:05:28.855Z,13.78
2022-11-10T16:11:00.648Z,13.57
2022-11-10T16:16:32.628Z,13.46
2022-11-10T16:22:04.623Z,13.27
2022-11-10T16:27:36.671Z,13.19
2022-11-10T16:33:08.486Z,12.99
2022-11-10T16:38:40.365Z,12.96
2022-11-10T16:44:12.734Z,12.81
2022-11-10T16:49:44.992Z,12.75
2022-11-10T16:55:17.284Z,12.57
2022-11-10T17:00:49.029Z,12.50
2022-11-10T17:06:20.974Z,12.36
2022-11-10T17:11:52.886Z,12.33
2022-11-10T17:17:25.057Z,12.27
2022-11-10T17:22:57.152Z,12.10
2022-11-10T17:28:29.532Z,12.03
2022-11-10T17:34:01.732Z,11.85
2022-11-10T17:39:34.255Z,11.81
2022-11-10T17:45:06.078Z,11.75
2022-11-10T17:50:38.010Z,11.70
2022-11-10T17:56:09.765Z,11.57
2022-11-10T18:01:41.768Z,11.51
2022-11-10T18:07:13.657Z,11.43
2022-11-10T18:12:45.507Z,11.39
2022-11-10T18:18:17.431Z,11.29
2022-11-10T18:23:49.600Z,11.25
2022-11-10T18:29:21.609Z,11.15
2022-11-10T18:34:53.417Z,11.02
2022-11-10T18:40:25.368Z,10.87
2022-11-10T18:45:57.250Z,10.77
2022-11-10T18:51:29.293Z,10.57
2022-11-10T18:57:01.242Z,10.48
2022-11-10T19:02:33.074Z,10.36
2022-11-10T19:04:44.336Z,0.00
2022-11-10T19:10:16.270Z,10.26
2022-11-10T19:15:47.961Z,10.22
2022-11-10T19:21:19.778Z,10.19
2022-11-10T19:26:51.495Z,10.19
2022-11-10T19:32:24.938Z,10.10
2022-11-10T19:37:55.104Z,10.05
2022-11-10T19:43:26.636Z,9.97
2022-11-10T19:48:58.520Z,9.91
2022-11-10T19:54:30.072Z,9.77
2022-11-10T20:00:01.481Z,9.70
2022-11-10T20:05:33.203Z,9.60
2022-11-10T20:11:05.061Z,9.58
2022-11-10T20:16:36.957Z,9.51
2022-11-10T20:22:08.819Z,9.50
2022-11-10T20:27:40.303Z,9.37
2022-11-10T20:33:12.405Z,9.33
2022-11-10T20:38:44.253Z,9.26
2022-11-10T20:44:16.222Z,9.21
2022-11-10T20:49:47.991Z,9.14
2022-11-10T20:55:43.593Z,9.01
2022-11-10T21:00:51.542Z,8.97
2022-11-10T21:06:23.520Z,8.87
2022-11-10T21:11:55.138Z,8.84
2022-11-10T21:17:26.991Z,8.74
2022-11-10T21:23:03.164Z,8.71
2022-11-10T21:28:30.592Z,8.63
2022-11-10T21:34:02.003Z,8.59
2022-11-10T21:45:03.687Z,8.43
2022-11-10T21:52:56.770Z,0.00
2022-11-10T21:58:28.682Z,8.37
2022-11-10T22:04:00.440Z,8.32
2022-11-10T22:15:02.091Z,8.19
2022-11-10T22:20:34.004Z,8.14
2022-11-10T22:26:06.037Z,8.09
2022-11-10T22:31:38.151Z,8.01
2022-11-10T22:37:09.915Z,7.97
2022-11-10T22:42:41.590Z,7.91
2022-11-10T22:48:13.386Z,7.87
2022-11-10T22:53:45.071Z,7.78
2022-11-10T22:59:16.931Z,7.73
2022-11-10T23:04:48.510Z,7.64
2022-11-10T23:10:20.416Z,7.64
2022-11-10T23:15:52.297Z,7.56
2022-11-10T23:21:24.676Z,7.49
2022-11-10T23:26:56.235Z,7.52
2022-11-10T23:32:28.190Z,7.46
2022-11-10T23:37:59.790Z,7.43
2022-11-10T23:43:31.480Z,7.39
2022-11-10T23:49:03.396Z,7.35
2022-11-10T23:54:35.139Z,7.29
